Philadelphia, Pennsylvania
Traffic Map
Current Weather Conditions
Philadelphia, Pennsylvania
Broken Clouds
Broken Clouds
82°
Feels Like: 86°
Wind Chill: 82° Ceiling: 8000
Heat Index: 86° Visibility: 10mi
Dew Point: 71° Wind: 10mph
Humidity: 69% Direction: 210° (SSW)
Pressure: 29.87in Gusts: 0mph
Raw Report DataKPHL 282154Z 21009KT 10SM SCT025 BKN080 BKN250 28/22 A2987 RMK AO2 SLP116 T02780217 $
Traffic Incident Summary
Active as of:
Severity:
Category:
InformationThere was an issue retrieving the traffic information for this location. Please try a different location or try again shortly.
Advertisements
Track Severe Weather on mobile